sensor_id;sensor_type;location;lat;lon;timestamp;P1;durP1;ratioP1;P2;durP2;ratioP2
76765;SDS011;65707;52.362;6.588;2022-12-29T00:01:29;5.40;;;1.80;;
76765;SDS011;65707;52.362;6.588;2022-12-29T00:03:55;5.40;;;1.70;;
76765;SDS011;65707;52.362;6.588;2022-12-29T00:06:22;6.35;;;2.00;;
76765;SDS011;65707;52.362;6.588;2022-12-29T00:08:50;5.35;;;1.90;;
76765;SDS011;65707;52.362;6.588;2022-12-29T00:11:17;5.25;;;1.85;;
76765;SDS011;65707;52.362;6.588;2022-12-29T00:13:50;4.93;;;1.83;;
76765;SDS011;65707;52.362;6.588;2022-12-29T00:16:47;4.60;;;1.50;;
76765;SDS011;65707;52.362;6.588;2022-12-29T00:19:13;5.05;;;1.90;;
76765;SDS011;65707;52.362;6.588;2022-12-29T00:21:54;5.15;;;1.60;;
76765;SDS011;65707;52.362;6.588;2022-12-29T00:24:53;4.72;;;1.52;;
76765;SDS011;65707;52.362;6.588;2022-12-29T00:27:37;4.40;;;1.60;;
76765;SDS011;65707;52.362;6.588;2022-12-29T00:30:23;4.90;;;1.70;;
76765;SDS011;65707;52.362;6.588;2022-12-29T00:33:09;5.53;;;1.73;;
76765;SDS011;65707;52.362;6.588;2022-12-29T00:35:54;4.47;;;1.73;;
76765;SDS011;65707;52.362;6.588;2022-12-29T00:38:26;6.05;;;1.60;;
76765;SDS011;65707;52.362;6.588;2022-12-29T00:41:13;5.32;;;1.40;;
76765;SDS011;65707;52.362;6.588;2022-12-29T00:43:57;5.38;;;1.83;;
76765;SDS011;65707;52.362;6.588;2022-12-29T00:46:36;5.75;;;1.65;;
76765;SDS011;65707;52.362;6.588;2022-12-29T00:49:05;5.15;;;1.48;;
76765;SDS011;65707;52.362;6.588;2022-12-29T00:51:52;5.18;;;1.55;;
76765;SDS011;65707;52.362;6.588;2022-12-29T00:54:21;4.38;;;1.50;;
76765;SDS011;65707;52.362;6.588;2022-12-29T00:56:48;6.05;;;1.80;;
76765;SDS011;65707;52.362;6.588;2022-12-29T00:59:16;5.88;;;1.80;;
76765;SDS011;65707;52.362;6.588;2022-12-29T01:01:46;6.60;;;1.70;;
76765;SDS011;65707;52.362;6.588;2022-12-29T01:04:13;4.90;;;1.60;;
76765;SDS011;65707;52.362;6.588;2022-12-29T01:06:40;5.40;;;1.67;;
76765;SDS011;65707;52.362;6.588;2022-12-29T01:09:08;5.45;;;1.70;;
76765;SDS011;65707;52.362;6.588;2022-12-29T01:11:53;4.72;;;1.42;;
76765;SDS011;65707;52.362;6.588;2022-12-29T01:14:20;4.82;;;1.75;;
76765;SDS011;65707;52.362;6.588;2022-12-29T01:16:49;5.60;;;2.03;;
76765;SDS011;65707;52.362;6.588;2022-12-29T01:19:17;5.65;;;2.03;;
76765;SDS011;65707;52.362;6.588;2022-12-29T01:21:46;4.93;;;1.85;;
76765;SDS011;65707;52.362;6.588;2022-12-29T01:24:13;4.93;;;1.63;;
76765;SDS011;65707;52.362;6.588;2022-12-29T01:26:41;4.70;;;1.75;;
76765;SDS011;65707;52.362;6.588;2022-12-29T01:29:11;5.68;;;1.75;;
76765;SDS011;65707;52.362;6.588;2022-12-29T01:31:38;5.47;;;1.85;;
76765;SDS011;65707;52.362;6.588;2022-12-29T01:34:06;4.93;;;1.70;;
76765;SDS011;65707;52.362;6.588;2022-12-29T01:36:33;4.65;;;1.73;;
76765;SDS011;65707;52.362;6.588;2022-12-29T01:39:00;5.20;;;1.65;;
76765;SDS011;65707;52.362;6.588;2022-12-29T01:41:28;5.68;;;1.60;;
76765;SDS011;65707;52.362;6.588;2022-12-29T01:43:55;4.82;;;1.42;;
76765;SDS011;65707;52.362;6.588;2022-12-29T01:46:26;4.95;;;1.55;;
76765;SDS011;65707;52.362;6.588;2022-12-29T01:49:00;4.25;;;1.23;;
76765;SDS011;65707;52.362;6.588;2022-12-29T01:51:38;4.30;;;1.27;;
76765;SDS011;65707;52.362;6.588;2022-12-29T01:54:13;4.97;;;1.35;;
76765;SDS011;65707;52.362;6.588;2022-12-29T01:56:46;4.75;;;1.60;;
76765;SDS011;65707;52.362;6.588;2022-12-29T01:59:15;3.92;;;0.90;;
76765;SDS011;65707;52.362;6.588;2022-12-29T02:01:50;4.57;;;1.20;;
76765;SDS011;65707;52.362;6.588;2022-12-29T02:04:18;4.22;;;1.33;;
76765;SDS011;65707;52.362;6.588;2022-12-29T02:06:47;4.20;;;1.10;;
76765;SDS011;65707;52.362;6.588;2022-12-29T02:09:20;4.28;;;1.00;;
76765;SDS011;65707;52.362;6.588;2022-12-29T02:11:48;4.90;;;1.00;;
76765;SDS011;65707;52.362;6.588;2022-12-29T02:14:15;4.38;;;1.05;;
76765;SDS011;65707;52.362;6.588;2022-12-29T02:16:47;6.38;;;1.10;;
76765;SDS011;65707;52.362;6.588;2022-12-29T02:19:40;6.40;;;1.20;;
76765;SDS011;65707;52.362;6.588;2022-12-29T02:22:45;5.03;;;0.93;;
76765;SDS011;65707;52.362;6.588;2022-12-29T02:25:45;4.40;;;0.90;;
76765;SDS011;65707;52.362;6.588;2022-12-29T02:28:44;4.80;;;0.90;;
76765;SDS011;65707;52.362;6.588;2022-12-29T02:31:33;4.10;;;1.02;;
76765;SDS011;65707;52.362;6.588;2022-12-29T02:34:16;4.35;;;1.00;;
76765;SDS011;65707;52.362;6.588;2022-12-29T02:36:57;3.78;;;0.90;;
76765;SDS011;65707;52.362;6.588;2022-12-29T02:39:37;4.57;;;1.10;;
76765;SDS011;65707;52.362;6.588;2022-12-29T02:42:10;5.97;;;0.90;;
76765;SDS011;65707;52.362;6.588;2022-12-29T02:44:51;3.58;;;0.80;;
76765;SDS011;65707;52.362;6.588;2022-12-29T02:47:30;5.55;;;1.13;;
76765;SDS011;65707;52.362;6.588;2022-12-29T02:50:06;4.57;;;1.23;;
76765;SDS011;65707;52.362;6.588;2022-12-29T02:52:42;4.90;;;1.40;;
76765;SDS011;65707;52.362;6.588;2022-12-29T02:55:16;4.80;;;1.52;;
76765;SDS011;65707;52.362;6.588;2022-12-29T02:57:41;5.85;;;1.35;;
76765;SDS011;65707;52.362;6.588;2022-12-29T03:00:10;4.50;;;1.50;;
76765;SDS011;65707;52.362;6.588;2022-12-29T03:02:48;5.30;;;1.25;;
76765;SDS011;65707;52.362;6.588;2022-12-29T03:05:49;4.05;;;1.10;;
76765;SDS011;65707;52.362;6.588;2022-12-29T03:08:34;4.05;;;1.17;;
76765;SDS011;65707;52.362;6.588;2022-12-29T03:11:14;4.72;;;1.30;;
76765;SDS011;65707;52.362;6.588;2022-12-29T03:14:01;5.07;;;1.10;;
76765;SDS011;65707;52.362;6.588;2022-12-29T03:16:54;4.55;;;1.10;;
76765;SDS011;65707;52.362;6.588;2022-12-29T03:19:34;5.75;;;1.10;;
76765;SDS011;65707;52.362;6.588;2022-12-29T03:22:04;4.00;;;1.17;;
76765;SDS011;65707;52.362;6.588;2022-12-29T03:24:53;3.88;;;0.90;;
76765;SDS011;65707;52.362;6.588;2022-12-29T03:27:27;4.75;;;1.05;;
76765;SDS011;65707;52.362;6.588;2022-12-29T03:29:59;4.78;;;0.70;;
76765;SDS011;65707;52.362;6.588;2022-12-29T03:32:31;3.40;;;0.90;;
76765;SDS011;65707;52.362;6.588;2022-12-29T03:35:04;3.40;;;0.73;;
76765;SDS011;65707;52.362;6.588;2022-12-29T03:37:37;6.07;;;0.90;;
76765;SDS011;65707;52.362;6.588;2022-12-29T03:40:15;4.53;;;0.82;;
76765;SDS011;65707;52.362;6.588;2022-12-29T03:42:44;4.70;;;0.80;;
76765;SDS011;65707;52.362;6.588;2022-12-29T03:45:13;3.03;;;0.50;;
76765;SDS011;65707;52.362;6.588;2022-12-29T03:47:39;3.60;;;0.85;;
76765;SDS011;65707;52.362;6.588;2022-12-29T03:50:13;3.25;;;0.75;;
76765;SDS011;65707;52.362;6.588;2022-12-29T03:52:45;3.75;;;0.77;;
76765;SDS011;65707;52.362;6.588;2022-12-29T03:55:12;3.67;;;0.73;;
76765;SDS011;65707;52.362;6.588;2022-12-29T03:57:39;3.83;;;0.90;;
76765;SDS011;65707;52.362;6.588;2022-12-29T04:00:07;4.15;;;0.80;;
76765;SDS011;65707;52.362;6.588;2022-12-29T04:02:36;4.68;;;0.98;;
76765;SDS011;65707;52.362;6.588;2022-12-29T04:05:03;3.42;;;0.82;;
76765;SDS011;65707;52.362;6.588;2022-12-29T04:07:32;3.83;;;0.77;;
76765;SDS011;65707;52.362;6.588;2022-12-29T04:09:59;4.65;;;1.13;;
76765;SDS011;65707;52.362;6.588;2022-12-29T04:12:25;5.65;;;0.80;;
76765;SDS011;65707;52.362;6.588;2022-12-29T04:14:52;4.45;;;1.02;;
76765;SDS011;65707;52.362;6.588;2022-12-29T04:17:20;4.20;;;1.00;;
76765;SDS011;65707;52.362;6.588;2022-12-29T04:19:47;3.78;;;1.00;;
76765;SDS011;65707;52.362;6.588;2022-12-29T04:22:14;5.03;;;0.90;;
76765;SDS011;65707;52.362;6.588;2022-12-29T04:24:42;3.58;;;0.70;;
76765;SDS011;65707;52.362;6.588;2022-12-29T04:27:09;11.35;;;2.75;;
76765;SDS011;65707;52.362;6.588;2022-12-29T04:29:37;3.85;;;0.80;;
76765;SDS011;65707;52.362;6.588;2022-12-29T04:32:03;2.08;;;0.75;;
76765;SDS011;65707;52.362;6.588;2022-12-29T04:34:31;3.22;;;0.77;;
76765;SDS011;65707;52.362;6.588;2022-12-29T04:36:58;3.20;;;0.77;;
76765;SDS011;65707;52.362;6.588;2022-12-29T04:39:25;3.30;;;0.70;;
76765;SDS011;65707;52.362;6.588;2022-12-29T04:41:53;3.28;;;0.55;;
76765;SDS011;65707;52.362;6.588;2022-12-29T04:44:20;4.60;;;0.80;;
76765;SDS011;65707;52.362;6.588;2022-12-29T04:46:47;4.45;;;0.73;;
76765;SDS011;65707;52.362;6.588;2022-12-29T04:49:14;3.47;;;0.70;;
76765;SDS011;65707;52.362;6.588;2022-12-29T04:51:41;4.57;;;0.90;;
76765;SDS011;65707;52.362;6.588;2022-12-29T04:54:07;5.25;;;0.80;;
76765;SDS011;65707;52.362;6.588;2022-12-29T04:56:34;4.35;;;0.90;;
76765;SDS011;65707;52.362;6.588;2022-12-29T04:59:02;3.63;;;0.70;;
76765;SDS011;65707;52.362;6.588;2022-12-29T05:01:29;7.00;;;1.00;;
76765;SDS011;65707;52.362;6.588;2022-12-29T05:03:56;3.75;;;0.63;;
76765;SDS011;65707;52.362;6.588;2022-12-29T05:06:23;4.65;;;0.77;;
76765;SDS011;65707;52.362;6.588;2022-12-29T05:08:49;2.45;;;0.47;;
76765;SDS011;65707;52.362;6.588;2022-12-29T05:11:16;4.10;;;0.80;;
76765;SDS011;65707;52.362;6.588;2022-12-29T05:13:44;3.53;;;0.80;;
76765;SDS011;65707;52.362;6.588;2022-12-29T05:16:13;5.65;;;0.73;;
76765;SDS011;65707;52.362;6.588;2022-12-29T05:18:39;2.95;;;0.55;;
76765;SDS011;65707;52.362;6.588;2022-12-29T05:21:06;3.60;;;0.80;;
76765;SDS011;65707;52.362;6.588;2022-12-29T05:23:33;5.57;;;0.80;;
76765;SDS011;65707;52.362;6.588;2022-12-29T05:26:00;5.15;;;0.60;;
76765;SDS011;65707;52.362;6.588;2022-12-29T05:28:26;5.55;;;0.75;;
76765;SDS011;65707;52.362;6.588;2022-12-29T05:30:53;3.42;;;0.70;;
76765;SDS011;65707;52.362;6.588;2022-12-29T05:33:21;5.63;;;1.30;;
76765;SDS011;65707;52.362;6.588;2022-12-29T05:35:48;2.60;;;0.73;;
76765;SDS011;65707;52.362;6.588;2022-12-29T05:38:15;4.88;;;0.80;;
76765;SDS011;65707;52.362;6.588;2022-12-29T05:40:42;5.53;;;0.77;;
76765;SDS011;65707;52.362;6.588;2022-12-29T05:43:09;4.95;;;0.70;;
76765;SDS011;65707;52.362;6.588;2022-12-29T05:45:36;6.80;;;1.05;;
76765;SDS011;65707;52.362;6.588;2022-12-29T05:48:03;7.45;;;0.80;;
76765;SDS011;65707;52.362;6.588;2022-12-29T05:50:32;5.75;;;1.08;;
76765;SDS011;65707;52.362;6.588;2022-12-29T05:52:58;4.15;;;0.68;;
76765;SDS011;65707;52.362;6.588;2022-12-29T05:55:25;6.18;;;0.93;;
76765;SDS011;65707;52.362;6.588;2022-12-29T05:57:52;7.32;;;0.93;;
76765;SDS011;65707;52.362;6.588;2022-12-29T06:00:19;5.32;;;0.90;;
76765;SDS011;65707;52.362;6.588;2022-12-29T06:02:46;6.35;;;0.93;;
76765;SDS011;65707;52.362;6.588;2022-12-29T06:05:13;7.50;;;1.10;;
76765;SDS011;65707;52.362;6.588;2022-12-29T06:07:41;7.20;;;1.05;;
76765;SDS011;65707;52.362;6.588;2022-12-29T06:10:09;5.90;;;1.00;;
76765;SDS011;65707;52.362;6.588;2022-12-29T06:12:36;8.63;;;1.20;;
76765;SDS011;65707;52.362;6.588;2022-12-29T06:15:03;7.68;;;1.05;;
76765;SDS011;65707;52.362;6.588;2022-12-29T06:17:32;6.55;;;1.05;;
76765;SDS011;65707;52.362;6.588;2022-12-29T06:19:58;3.75;;;0.63;;
76765;SDS011;65707;52.362;6.588;2022-12-29T06:22:25;4.82;;;0.80;;
76765;SDS011;65707;52.362;6.588;2022-12-29T06:24:53;6.35;;;1.20;;
76765;SDS011;65707;52.362;6.588;2022-12-29T06:27:20;5.50;;;0.80;;
76765;SDS011;65707;52.362;6.588;2022-12-29T06:29:47;7.43;;;0.85;;
76765;SDS011;65707;52.362;6.588;2022-12-29T06:32:14;9.50;;;1.00;;
76765;SDS011;65707;52.362;6.588;2022-12-29T06:34:41;8.77;;;0.90;;
76765;SDS011;65707;52.362;6.588;2022-12-29T06:37:09;8.23;;;0.90;;
76765;SDS011;65707;52.362;6.588;2022-12-29T06:39:36;5.13;;;0.80;;
76765;SDS011;65707;52.362;6.588;2022-12-29T06:42:05;6.15;;;1.10;;
76765;SDS011;65707;52.362;6.588;2022-12-29T06:44:32;9.13;;;0.95;;
76765;SDS011;65707;52.362;6.588;2022-12-29T06:46:58;8.75;;;1.45;;
76765;SDS011;65707;52.362;6.588;2022-12-29T06:49:25;8.00;;;1.20;;
76765;SDS011;65707;52.362;6.588;2022-12-29T06:51:52;5.78;;;0.80;;
76765;SDS011;65707;52.362;6.588;2022-12-29T06:54:19;4.13;;;0.82;;
76765;SDS011;65707;52.362;6.588;2022-12-29T06:56:45;6.50;;;1.35;;
76765;SDS011;65707;52.362;6.588;2022-12-29T06:59:13;8.10;;;1.08;;
76765;SDS011;65707;52.362;6.588;2022-12-29T07:01:40;7.78;;;1.48;;
76765;SDS011;65707;52.362;6.588;2022-12-29T07:04:07;7.03;;;1.20;;
76765;SDS011;65707;52.362;6.588;2022-12-29T07:06:34;7.18;;;0.80;;
76765;SDS011;65707;52.362;6.588;2022-12-29T07:09:01;6.68;;;2.40;;
76765;SDS011;65707;52.362;6.588;2022-12-29T07:11:27;9.52;;;1.40;;
76765;SDS011;65707;52.362;6.588;2022-12-29T07:13:54;7.32;;;1.02;;
76765;SDS011;65707;52.362;6.588;2022-12-29T07:16:22;5.82;;;0.80;;
76765;SDS011;65707;52.362;6.588;2022-12-29T07:18:49;7.15;;;0.80;;
76765;SDS011;65707;52.362;6.588;2022-12-29T07:21:17;11.05;;;1.20;;
76765;SDS011;65707;52.362;6.588;2022-12-29T07:23:44;17.25;;;1.40;;
76765;SDS011;65707;52.362;6.588;2022-12-29T07:26:11;7.30;;;0.90;;
76765;SDS011;65707;52.362;6.588;2022-12-29T07:28:42;8.02;;;1.10;;
76765;SDS011;65707;52.362;6.588;2022-12-29T07:31:12;7.63;;;1.55;;
76765;SDS011;65707;52.362;6.588;2022-12-29T07:33:43;10.55;;;1.60;;
76765;SDS011;65707;52.362;6.588;2022-12-29T07:36:11;7.97;;;1.15;;
76765;SDS011;65707;52.362;6.588;2022-12-29T07:38:39;8.00;;;1.35;;
76765;SDS011;65707;52.362;6.588;2022-12-29T07:41:05;7.80;;;0.95;;
76765;SDS011;65707;52.362;6.588;2022-12-29T07:43:32;8.23;;;1.38;;
76765;SDS011;65707;52.362;6.588;2022-12-29T07:46:00;7.53;;;1.25;;
76765;SDS011;65707;52.362;6.588;2022-12-29T07:48:27;7.53;;;1.08;;
76765;SDS011;65707;52.362;6.588;2022-12-29T07:50:56;8.98;;;0.95;;
76765;SDS011;65707;52.362;6.588;2022-12-29T07:53:22;8.23;;;1.00;;
76765;SDS011;65707;52.362;6.588;2022-12-29T07:55:49;5.60;;;0.90;;
76765;SDS011;65707;52.362;6.588;2022-12-29T07:58:16;4.38;;;0.80;;
76765;SDS011;65707;52.362;6.588;2022-12-29T08:00:43;6.93;;;1.02;;
76765;SDS011;65707;52.362;6.588;2022-12-29T08:03:12;5.68;;;0.98;;
76765;SDS011;65707;52.362;6.588;2022-12-29T08:05:38;8.50;;;1.30;;
76765;SDS011;65707;52.362;6.588;2022-12-29T08:08:07;7.70;;;1.10;;
76765;SDS011;65707;52.362;6.588;2022-12-29T08:10:33;8.45;;;0.90;;
76765;SDS011;65707;52.362;6.588;2022-12-29T08:13:00;5.82;;;0.85;;
76765;SDS011;65707;52.362;6.588;2022-12-29T08:15:27;8.85;;;1.48;;
76765;SDS011;65707;52.362;6.588;2022-12-29T08:17:54;8.65;;;1.30;;
76765;SDS011;65707;52.362;6.588;2022-12-29T08:20:20;7.15;;;1.38;;
76765;SDS011;65707;52.362;6.588;2022-12-29T08:22:47;4.95;;;1.00;;
76765;SDS011;65707;52.362;6.588;2022-12-29T08:25:16;6.75;;;1.10;;
76765;SDS011;65707;52.362;6.588;2022-12-29T08:27:44;9.30;;;1.52;;
76765;SDS011;65707;52.362;6.588;2022-12-29T08:30:11;5.32;;;1.08;;
76765;SDS011;65707;52.362;6.588;2022-12-29T08:32:39;4.72;;;0.82;;
76765;SDS011;65707;52.362;6.588;2022-12-29T08:35:06;6.78;;;1.02;;
76765;SDS011;65707;52.362;6.588;2022-12-29T08:37:34;10.32;;;1.20;;
76765;SDS011;65707;52.362;6.588;2022-12-29T08:40:01;7.28;;;1.13;;
76765;SDS011;65707;52.362;6.588;2022-12-29T08:42:30;4.68;;;1.00;;
76765;SDS011;65707;52.362;6.588;2022-12-29T08:44:58;5.88;;;1.15;;
76765;SDS011;65707;52.362;6.588;2022-12-29T08:47:26;8.02;;;1.13;;
76765;SDS011;65707;52.362;6.588;2022-12-29T08:49:54;8.05;;;1.02;;
76765;SDS011;65707;52.362;6.588;2022-12-29T08:52:20;5.00;;;1.13;;
76765;SDS011;65707;52.362;6.588;2022-12-29T08:54:47;4.93;;;0.90;;
76765;SDS011;65707;52.362;6.588;2022-12-29T08:57:14;8.30;;;1.20;;
76765;SDS011;65707;52.362;6.588;2022-12-29T08:59:42;7.07;;;1.25;;
76765;SDS011;65707;52.362;6.588;2022-12-29T09:02:10;6.40;;;1.52;;
76765;SDS011;65707;52.362;6.588;2022-12-29T09:04:37;4.35;;;0.70;;
76765;SDS011;65707;52.362;6.588;2022-12-29T09:07:04;8.07;;;1.20;;
76765;SDS011;65707;52.362;6.588;2022-12-29T09:09:31;7.13;;;1.20;;
76765;SDS011;65707;52.362;6.588;2022-12-29T09:11:58;7.90;;;1.10;;
76765;SDS011;65707;52.362;6.588;2022-12-29T09:14:25;7.07;;;1.33;;
76765;SDS011;65707;52.362;6.588;2022-12-29T09:16:53;10.85;;;1.67;;
76765;SDS011;65707;52.362;6.588;2022-12-29T09:19:38;14.07;;;1.65;;
76765;SDS011;65707;52.362;6.588;2022-12-29T09:22:05;8.30;;;1.10;;
76765;SDS011;65707;52.362;6.588;2022-12-29T09:24:32;6.13;;;0.82;;
76765;SDS011;65707;52.362;6.588;2022-12-29T09:26:59;5.28;;;0.88;;
76765;SDS011;65707;52.362;6.588;2022-12-29T09:29:26;8.65;;;1.33;;
76765;SDS011;65707;52.362;6.588;2022-12-29T09:31:54;9.57;;;1.25;;
76765;SDS011;65707;52.362;6.588;2022-12-29T09:34:21;5.63;;;1.02;;
76765;SDS011;65707;52.362;6.588;2022-12-29T09:36:48;8.13;;;1.00;;
76765;SDS011;65707;52.362;6.588;2022-12-29T09:39:15;11.75;;;1.52;;
76765;SDS011;65707;52.362;6.588;2022-12-29T09:41:43;7.82;;;1.17;;
76765;SDS011;65707;52.362;6.588;2022-12-29T09:44:20;9.15;;;1.00;;
76765;SDS011;65707;52.362;6.588;2022-12-29T09:46:59;8.05;;;1.30;;
76765;SDS011;65707;52.362;6.588;2022-12-29T09:49:28;6.80;;;1.23;;
76765;SDS011;65707;52.362;6.588;2022-12-29T09:52:05;7.30;;;0.95;;
76765;SDS011;65707;52.362;6.588;2022-12-29T09:54:41;7.57;;;1.10;;
76765;SDS011;65707;52.362;6.588;2022-12-29T09:57:20;5.93;;;0.90;;
76765;SDS011;65707;52.362;6.588;2022-12-29T09:59:54;6.20;;;1.55;;
76765;SDS011;65707;52.362;6.588;2022-12-29T10:02:34;7.00;;;1.00;;
76765;SDS011;65707;52.362;6.588;2022-12-29T10:05:15;7.18;;;1.17;;
76765;SDS011;65707;52.362;6.588;2022-12-29T10:07:58;11.40;;;1.33;;
76765;SDS011;65707;52.362;6.588;2022-12-29T10:10:43;6.35;;;1.15;;
76765;SDS011;65707;52.362;6.588;2022-12-29T10:13:23;10.30;;;1.40;;
76765;SDS011;65707;52.362;6.588;2022-12-29T10:16:08;8.63;;;1.38;;
76765;SDS011;65707;52.362;6.588;2022-12-29T10:21:47;7.03;;;1.25;;
76765;SDS011;65707;52.362;6.588;2022-12-29T10:24:30;7.57;;;0.98;;
76765;SDS011;65707;52.362;6.588;2022-12-29T10:27:03;8.57;;;1.15;;
76765;SDS011;65707;52.362;6.588;2022-12-29T10:29:36;6.85;;;1.10;;
76765;SDS011;65707;52.362;6.588;2022-12-29T10:32:18;16.02;;;1.73;;
76765;SDS011;65707;52.362;6.588;2022-12-29T10:34:57;14.57;;;1.35;;
76765;SDS011;65707;52.362;6.588;2022-12-29T10:37:32;7.35;;;1.02;;
76765;SDS011;65707;52.362;6.588;2022-12-29T10:40:14;8.70;;;1.27;;
76765;SDS011;65707;52.362;6.588;2022-12-29T10:42:51;7.70;;;0.90;;
76765;SDS011;65707;52.362;6.588;2022-12-29T10:45:21;5.97;;;1.35;;
76765;SDS011;65707;52.362;6.588;2022-12-29T10:47:55;10.55;;;1.02;;
76765;SDS011;65707;52.362;6.588;2022-12-29T10:50:30;5.00;;;0.82;;
76765;SDS011;65707;52.362;6.588;2022-12-29T10:52:59;10.05;;;1.60;;
76765;SDS011;65707;52.362;6.588;2022-12-29T10:55:32;7.35;;;1.10;;
76765;SDS011;65707;52.362;6.588;2022-12-29T10:58:04;6.70;;;1.20;;
76765;SDS011;65707;52.362;6.588;2022-12-29T11:00:33;6.95;;;1.17;;
76765;SDS011;65707;52.362;6.588;2022-12-29T11:06:09;7.20;;;1.30;;
76765;SDS011;65707;52.362;6.588;2022-12-29T11:08:46;8.85;;;1.25;;
76765;SDS011;65707;52.362;6.588;2022-12-29T11:11:23;7.85;;;1.30;;
76765;SDS011;65707;52.362;6.588;2022-12-29T11:13:57;8.23;;;1.38;;
76765;SDS011;65707;52.362;6.588;2022-12-29T11:16:30;6.10;;;0.98;;
76765;SDS011;65707;52.362;6.588;2022-12-29T11:18:59;9.88;;;1.40;;
76765;SDS011;65707;52.362;6.588;2022-12-29T11:21:32;8.30;;;0.90;;
76765;SDS011;65707;52.362;6.588;2022-12-29T11:24:14;11.60;;;2.00;;
76765;SDS011;65707;52.362;6.588;2022-12-29T11:26:49;7.75;;;1.23;;
76765;SDS011;65707;52.362;6.588;2022-12-29T11:29:23;5.45;;;1.00;;
76765;SDS011;65707;52.362;6.588;2022-12-29T11:31:53;6.88;;;1.15;;
76765;SDS011;65707;52.362;6.588;2022-12-29T11:34:24;6.72;;;1.33;;
76765;SDS011;65707;52.362;6.588;2022-12-29T11:37:00;7.60;;;1.23;;
76765;SDS011;65707;52.362;6.588;2022-12-29T11:39:33;5.88;;;0.95;;
76765;SDS011;65707;52.362;6.588;2022-12-29T11:42:05;6.55;;;1.00;;
76765;SDS011;65707;52.362;6.588;2022-12-29T11:44:42;7.93;;;1.30;;
76765;SDS011;65707;52.362;6.588;2022-12-29T11:47:13;8.00;;;1.45;;
76765;SDS011;65707;52.362;6.588;2022-12-29T11:49:50;5.18;;;1.20;;
76765;SDS011;65707;52.362;6.588;2022-12-29T11:52:27;7.10;;;1.33;;
76765;SDS011;65707;52.362;6.588;2022-12-29T11:55:00;8.18;;;1.23;;
76765;SDS011;65707;52.362;6.588;2022-12-29T11:57:31;7.70;;;1.20;;
76765;SDS011;65707;52.362;6.588;2022-12-29T12:00:01;11.70;;;1.55;;
76765;SDS011;65707;52.362;6.588;2022-12-29T12:02:40;6.18;;;0.90;;
76765;SDS011;65707;52.362;6.588;2022-12-29T12:05:21;9.80;;;1.42;;
76765;SDS011;65707;52.362;6.588;2022-12-29T12:07:59;7.15;;;1.48;;
76765;SDS011;65707;52.362;6.588;2022-12-29T12:10:36;7.93;;;1.30;;
76765;SDS011;65707;52.362;6.588;2022-12-29T12:13:15;7.85;;;1.50;;
76765;SDS011;65707;52.362;6.588;2022-12-29T12:15:50;8.98;;;2.13;;
76765;SDS011;65707;52.362;6.588;2022-12-29T12:18:30;8.93;;;1.40;;
76765;SDS011;65707;52.362;6.588;2022-12-29T12:21:06;15.35;;;3.03;;
76765;SDS011;65707;52.362;6.588;2022-12-29T12:23:52;9.20;;;2.15;;
76765;SDS011;65707;52.362;6.588;2022-12-29T12:26:43;11.07;;;1.60;;
76765;SDS011;65707;52.362;6.588;2022-12-29T12:29:22;8.77;;;1.63;;
76765;SDS011;65707;52.362;6.588;2022-12-29T12:32:02;9.90;;;1.77;;
76765;SDS011;65707;52.362;6.588;2022-12-29T12:34:41;7.38;;;1.63;;
76765;SDS011;65707;52.362;6.588;2022-12-29T12:37:16;10.07;;;1.73;;
76765;SDS011;65707;52.362;6.588;2022-12-29T12:40:15;9.13;;;1.60;;
76765;SDS011;65707;52.362;6.588;2022-12-29T12:43:22;9.45;;;1.63;;
76765;SDS011;65707;52.362;6.588;2022-12-29T12:46:11;10.23;;;1.80;;
76765;SDS011;65707;52.362;6.588;2022-12-29T12:48:58;11.32;;;2.00;;
76765;SDS011;65707;52.362;6.588;2022-12-29T12:52:04;10.77;;;1.95;;
76765;SDS011;65707;52.362;6.588;2022-12-29T12:54:54;7.32;;;1.42;;
76765;SDS011;65707;52.362;6.588;2022-12-29T12:57:46;9.10;;;2.22;;
76765;SDS011;65707;52.362;6.588;2022-12-29T13:00:26;8.85;;;1.67;;
76765;SDS011;65707;52.362;6.588;2022-12-29T13:03:03;7.50;;;1.48;;
76765;SDS011;65707;52.362;6.588;2022-12-29T13:05:47;8.85;;;2.03;;
76765;SDS011;65707;52.362;6.588;2022-12-29T13:08:54;7.72;;;1.75;;
76765;SDS011;65707;52.362;6.588;2022-12-29T13:11:49;9.73;;;1.63;;
76765;SDS011;65707;52.362;6.588;2022-12-29T13:14:37;7.88;;;1.40;;
76765;SDS011;65707;52.362;6.588;2022-12-29T13:17:26;11.23;;;1.67;;
76765;SDS011;65707;52.362;6.588;2022-12-29T13:19:59;7.50;;;1.63;;
76765;SDS011;65707;52.362;6.588;2022-12-29T13:22:39;8.38;;;1.88;;
76765;SDS011;65707;52.362;6.588;2022-12-29T13:25:22;8.63;;;1.50;;
76765;SDS011;65707;52.362;6.588;2022-12-29T13:28:02;10.10;;;1.95;;
76765;SDS011;65707;52.362;6.588;2022-12-29T13:30:38;13.80;;;1.80;;
76765;SDS011;65707;52.362;6.588;2022-12-29T13:33:15;9.65;;;1.77;;
76765;SDS011;65707;52.362;6.588;2022-12-29T13:35:59;8.40;;;1.77;;
76765;SDS011;65707;52.362;6.588;2022-12-29T13:38:32;8.32;;;1.80;;
76765;SDS011;65707;52.362;6.588;2022-12-29T13:41:06;12.27;;;1.80;;
76765;SDS011;65707;52.362;6.588;2022-12-29T13:43:41;10.25;;;2.33;;
76765;SDS011;65707;52.362;6.588;2022-12-29T13:46:13;8.77;;;1.80;;
76765;SDS011;65707;52.362;6.588;2022-12-29T13:48:49;9.13;;;2.00;;
76765;SDS011;65707;52.362;6.588;2022-12-29T13:51:24;8.63;;;2.00;;
76765;SDS011;65707;52.362;6.588;2022-12-29T13:54:00;11.27;;;2.60;;
76765;SDS011;65707;52.362;6.588;2022-12-29T13:56:41;11.00;;;2.33;;
76765;SDS011;65707;52.362;6.588;2022-12-29T13:59:21;14.20;;;2.90;;
76765;SDS011;65707;52.362;6.588;2022-12-29T14:02:08;8.82;;;2.30;;
76765;SDS011;65707;52.362;6.588;2022-12-29T14:04:56;7.40;;;2.22;;
76765;SDS011;65707;52.362;6.588;2022-12-29T14:07:26;11.85;;;2.53;;
76765;SDS011;65707;52.362;6.588;2022-12-29T14:09:55;13.07;;;2.58;;
76765;SDS011;65707;52.362;6.588;2022-12-29T14:12:28;10.60;;;2.80;;
76765;SDS011;65707;52.362;6.588;2022-12-29T14:15:04;10.30;;;2.95;;
76765;SDS011;65707;52.362;6.588;2022-12-29T14:17:45;14.68;;;2.63;;
76765;SDS011;65707;52.362;6.588;2022-12-29T14:20:30;12.38;;;2.42;;
76765;SDS011;65707;52.362;6.588;2022-12-29T14:23:00;13.88;;;2.50;;
76765;SDS011;65707;52.362;6.588;2022-12-29T14:26:00;14.73;;;3.08;;
76765;SDS011;65707;52.362;6.588;2022-12-29T14:28:39;10.77;;;2.78;;
76765;SDS011;65707;52.362;6.588;2022-12-29T14:37:03;12.88;;;3.17;;
76765;SDS011;65707;52.362;6.588;2022-12-29T14:39:32;10.65;;;2.85;;
76765;SDS011;65707;52.362;6.588;2022-12-29T14:42:04;14.95;;;3.20;;
76765;SDS011;65707;52.362;6.588;2022-12-29T14:44:48;8.93;;;2.15;;
76765;SDS011;65707;52.362;6.588;2022-12-29T14:47:20;15.30;;;3.00;;
76765;SDS011;65707;52.362;6.588;2022-12-29T14:50:01;9.10;;;2.65;;
76765;SDS011;65707;52.362;6.588;2022-12-29T14:52:32;9.65;;;2.13;;
76765;SDS011;65707;52.362;6.588;2022-12-29T14:55:35;10.57;;;2.28;;
76765;SDS011;65707;52.362;6.588;2022-12-29T14:58:06;9.85;;;3.00;;
76765;SDS011;65707;52.362;6.588;2022-12-29T15:00:43;15.00;;;3.38;;
76765;SDS011;65707;52.362;6.588;2022-12-29T15:03:14;10.43;;;2.70;;
76765;SDS011;65707;52.362;6.588;2022-12-29T15:05:48;13.73;;;5.25;;
76765;SDS011;65707;52.362;6.588;2022-12-29T15:08:19;11.98;;;3.20;;
76765;SDS011;65707;52.362;6.588;2022-12-29T15:10:53;13.93;;;3.22;;
76765;SDS011;65707;52.362;6.588;2022-12-29T15:13:24;10.10;;;2.40;;
76765;SDS011;65707;52.362;6.588;2022-12-29T15:16:02;10.13;;;2.83;;
76765;SDS011;65707;52.362;6.588;2022-12-29T15:18:32;13.23;;;2.58;;
76765;SDS011;65707;52.362;6.588;2022-12-29T15:21:00;9.43;;;2.22;;
76765;SDS011;65707;52.362;6.588;2022-12-29T15:23:31;14.95;;;2.75;;
76765;SDS011;65707;52.362;6.588;2022-12-29T15:26:04;7.10;;;2.08;;
76765;SDS011;65707;52.362;6.588;2022-12-29T15:28:37;8.38;;;1.75;;
76765;SDS011;65707;52.362;6.588;2022-12-29T15:31:09;9.43;;;1.98;;
76765;SDS011;65707;52.362;6.588;2022-12-29T15:33:43;9.35;;;2.15;;